Terminal Aerodrome Forecast
Issued by NWS Atlanta, GA

Home | Current Version | Previous Version | Text Only | Print | Product List | Glossary On
Versions: 1 2 3 4 5 6 7 8 9 10 11 12 13 14 15 16 17 18 19 20 21 22
000
FTUS42 KFFC 181126
TAFCSG
TAF
KCSG 181126Z 1812/1912 VRB03KT 6SM BR OVC003
      TEMPO 1812/1814 4SM -DZ BR
     FM181400 07005KT P6SM BKN009 OVC016
     FM181700 11006KT P6SM VCSH BKN025
     FM190100 12004KT 6SM -RA BKN015
     FM190400 13006KT 3SM -SHRA BR BKN006 OVC012 PROB30 1910/1912
      1SM TSRA BKN004CB OVC008=

USA.gov is the U.S. government's official web portal to all federal, state and local government web resources and services.